.
WxDataArchive / Data Records for 2010-12-29
2010-12-28 December 2010 2010-12-30

Data Records for Wednesday, 29 December 2010

Time	Temp	Chill	HIndex	Humid	Dewpt	 Wind 	HiWind	WindDir	Rain 	Barom 
-----	----	-----	------	-----	-----	------	------	-------	-----	----- 
00:00	25.3	25.3	25.3	81	20.3	2	6	248	0.00	30.117 
00:05	25.1	25.1	25.1	81	20.1	2	4	248	0.00	30.117 
00:10	25.1	25.1	25.1	81	20.1	1	4	248	0.00	30.117 
00:15	25.0	25.0	25.0	81	20.0	1	4	270	0.00	30.113 
00:20	25.0	25.0	25.0	81	20.0	1	5	225	0.00	30.113 
00:25	24.8	24.8	24.8	81	19.8	2	4	248	0.00	30.113 
00:30	24.8	24.8	24.8	81	19.8	2	6	248	0.00	30.113 
00:35	24.7	24.7	24.7	82	20.0	2	7	248	0.00	30.113 
00:40	24.7	24.7	24.7	82	20.0	1	5	248	0.00	30.113 
00:45	24.7	24.7	24.7	82	20.0	1	5	248	0.00	30.109 
00:50	24.5	24.5	24.5	82	19.8	2	5	248	0.00	30.109 
00:55	24.5	24.5	24.5	82	19.8	1	3	248	0.00	30.109 
01:00	24.4	24.4	24.4	82	19.7	1	4	248	0.00	30.103 
01:05	24.2	24.2	24.2	82	19.5	1	2	248	0.00	30.103 
01:10	24.2	24.2	24.2	83	19.8	1	3	248	0.00	30.103 
01:15	24.2	24.2	24.2	83	19.8	1	5	248	0.00	30.097 
01:20	24.1	24.1	24.1	83	19.7	1	4	248	0.00	30.097 
01:25	24.1	24.1	24.1	83	19.7	0	3	248	0.00	30.097 
01:30	23.9	23.9	23.9	83	19.5	1	3	248	0.00	30.096 
01:35	23.9	23.9	23.9	83	19.5	1	3	248	0.00	30.096 
01:40	23.8	23.8	23.8	84	19.7	1	3	248	0.00	30.096 
01:45	23.8	23.8	23.8	84	19.7	1	3	248	0.00	30.093 
01:50	23.8	23.8	23.8	84	19.7	1	4	248	0.00	30.093 
01:55	23.6	23.6	23.6	84	19.5	1	3	248	0.00	30.093 
02:00	23.6	23.6	23.6	84	19.5	0	2	248	0.00	30.094 
02:05	23.5	23.5	23.5	84	19.4	0	2	248	0.00	30.094 
02:10	23.2	23.2	23.2	84	19.1	0	2	248	0.00	30.094 
02:15	23.0	23.0	23.0	84	18.9	1	3	248	0.00	30.095 
02:20	23.0	23.0	23.0	84	18.9	1	3	248	0.00	30.095 
02:25	22.9	22.9	22.9	85	19.1	1	4	248	0.00	30.095 
02:30	22.9	22.9	22.9	85	19.1	1	3	248	0.00	30.096 
02:35	22.7	22.7	22.7	85	18.9	0	2	248	0.00	30.096 
02:40	22.5	22.5	22.5	85	18.7	1	3	248	0.00	30.096 
02:45	22.5	22.5	22.5	85	18.7	1	4	248	0.00	30.100 
02:50	22.5	22.5	22.5	86	19.0	1	4	248	0.00	30.100 
02:55	22.5	22.5	22.5	86	19.0	1	5	248	0.00	30.100 
03:00	22.5	22.5	22.5	86	19.0	1	4	248	0.00	30.106 
03:05	22.5	22.5	22.5	86	19.0	1	3	248	0.00	30.106 
03:10	22.5	22.5	22.5	86	19.0	1	4	270	0.00	30.106 
03:15	22.5	22.5	22.5	86	19.0	1	5	248	0.00	30.108 
03:20	22.4	22.4	22.4	86	18.9	0	2	248	0.00	30.108 
03:25	22.2	22.2	22.2	86	18.7	0	1	248	0.00	30.108 
03:30	22.1	22.1	22.1	86	18.6	0	2	248	0.00	30.106 
03:35	22.1	22.1	22.1	86	18.6	0	2	248	0.00	30.106 
03:40	21.9	21.9	21.9	86	18.4	0	2	248	0.00	30.106 
03:45	21.8	21.8	21.8	87	18.5	0	2	248	0.00	30.100 
03:50	21.8	21.8	21.8	87	18.5	0	1	248	0.00	30.100 
03:55	21.6	21.6	21.6	87	18.3	0	2	248	0.00	30.100 
04:00	21.4	21.4	21.4	87	18.1	1	4	248	0.00	30.097 
04:05	21.4	21.4	21.4	87	18.1	0	1	248	0.00	30.097 
04:10	21.3	21.3	21.3	87	18.0	0	2	248	0.00	30.097 
04:15	21.3	21.3	21.3	87	18.0	0	1	248	0.00	30.102 
04:20	21.1	21.1	21.1	87	17.8	0	2	248	0.00	30.102 
04:25	21.1	21.1	21.1	88	18.1	0	2	248	0.00	30.102 
04:30	21.1	21.1	21.1	88	18.1	0	3	248	0.00	30.104 
04:35	21.1	21.1	21.1	88	18.1	0	2	248	0.00	30.104 
04:40	21.1	21.1	21.1	88	18.1	1	2	248	0.00	30.104 
04:45	21.1	21.1	21.1	88	18.1	1	3	248	0.00	30.105 
04:50	21.1	21.1	21.1	88	18.1	0	2	248	0.00	30.105 
04:55	21.1	21.1	21.1	88	18.1	1	2	248	0.00	30.105 
05:00	21.0	21.0	21.0	88	18.0	1	2	248	0.00	30.107 
05:05	21.0	21.0	21.0	88	18.0	1	3	248	0.00	30.107 
05:10	21.0	21.0	21.0	88	18.0	0	2	248	0.00	30.107 
05:15	21.0	21.0	21.0	88	18.0	0	2	248	0.00	30.106 
05:20	21.0	21.0	21.0	88	18.0	0	2	248	0.00	30.106 
05:25	21.0	21.0	21.0	89	18.3	0	4	248	0.00	30.106 
05:30	21.0	21.0	21.0	88	18.0	0	1	248	0.00	30.105 
05:35	20.8	20.8	20.8	89	18.1	0	0	---	0.00	30.105 
05:40	20.6	20.6	20.6	88	17.6	0	0	---	0.00	30.105 
05:45	20.5	20.5	20.5	88	17.5	0	0	---	0.00	30.106 
05:50	20.2	20.2	20.2	88	17.2	0	0	---	0.00	30.106 
05:55	20.0	20.0	20.0	88	17.0	0	0	---	0.00	30.106 
06:00	19.7	19.7	19.7	88	16.7	0	0	---	0.00	30.106 
06:05	19.7	19.7	19.7	88	16.7	0	0	---	0.00	30.106 
06:10	19.5	19.5	19.5	89	16.8	0	1	248	0.00	30.106 
06:15	19.5	19.5	19.5	89	16.8	0	0	---	0.00	30.105 
06:20	19.5	19.5	19.5	89	16.8	0	0	---	0.00	30.105 
06:25	19.2	19.2	19.2	88	16.2	0	0	---	0.00	30.105 
06:30	19.1	19.1	19.1	88	16.1	0	0	---	0.00	30.107 
06:35	18.8	18.8	18.8	88	15.8	0	0	---	0.00	30.107 
06:40	18.3	18.3	18.3	88	15.4	0	0	---	0.00	30.107 
06:45	18.0	18.0	18.0	88	15.1	0	0	---	0.00	30.107 
06:50	17.7	17.7	17.7	88	14.8	0	0	---	0.00	30.107 
06:55	17.5	17.5	17.5	88	14.6	0	0	---	0.00	30.107 
07:00	17.3	17.3	17.3	88	14.4	0	0	---	0.00	30.112 
07:05	17.2	17.2	17.2	89	14.5	0	0	---	0.00	30.112 
07:10	17.2	17.2	17.2	89	14.5	0	0	---	0.00	30.112 
07:15	16.9	16.9	16.9	89	14.2	0	0	---	0.00	30.113 
07:20	16.7	16.7	16.7	88	13.8	0	0	---	0.00	30.113 
07:25	16.4	16.4	16.4	88	13.5	0	0	---	0.00	30.113 
07:30	16.1	16.1	16.1	88	13.2	0	0	---	0.00	30.115 
07:35	15.9	15.9	15.9	88	13.0	0	0	---	0.00	30.115 
07:40	15.6	15.6	15.6	88	12.7	0	0	---	0.00	30.115 
07:45	15.4	15.4	15.4	88	12.5	0	0	---	0.00	30.116 
07:50	15.2	15.2	15.2	88	12.3	0	0	---	0.00	30.116 
07:55	15.1	15.1	15.1	88	12.2	0	0	---	0.00	30.116 
08:00	14.9	14.9	14.9	88	12.0	0	0	---	0.00	30.118 
08:05	14.8	14.8	14.8	88	11.9	0	0	---	0.00	30.118 
08:10	14.8	14.8	14.8	88	11.9	0	0	---	0.00	30.118 
08:15	14.6	14.6	14.6	88	11.7	0	0	---	0.00	30.119 
08:20	14.4	14.4	14.4	88	11.5	0	0	---	0.00	30.119 
08:25	14.4	14.4	14.4	88	11.5	0	0	---	0.00	30.119 
08:30	14.4	14.4	14.4	88	11.5	0	0	---	0.00	30.124 
08:35	14.4	14.4	14.4	88	11.5	0	0	---	0.00	30.124 
08:40	14.4	14.4	14.4	88	11.5	0	0	---	0.00	30.124 
08:45	14.6	14.6	14.6	88	11.7	0	0	---	0.00	30.123 
08:50	14.9	14.9	14.9	89	12.3	0	0	---	0.00	30.123 
08:55	15.4	15.4	15.4	89	12.8	0	0	---	0.00	30.123 
09:00	15.9	15.9	15.9	89	13.2	0	0	---	0.00	30.124 
09:05	16.2	16.2	16.2	90	13.8	0	0	---	0.00	30.124 
09:10	16.9	16.9	16.9	90	14.5	0	0	---	0.00	30.124 
09:15	17.5	17.5	17.5	90	15.1	0	0	---	0.00	30.123 
09:20	18.0	18.0	18.0	90	15.6	0	0	---	0.00	30.123 
09:25	18.6	18.6	18.6	91	16.4	0	0	---	0.00	30.123 
09:30	19.2	19.2	19.2	91	17.0	0	1	248	0.00	30.121 
09:35	19.7	19.7	19.7	91	17.5	0	1	248	0.00	30.121 
09:40	20.2	20.2	20.2	91	18.0	0	1	248	0.00	30.121 
09:45	20.6	20.6	20.6	91	18.4	0	0	---	0.00	30.129 
09:50	21.0	21.0	21.0	91	18.8	0	0	---	0.00	30.129 
09:55	21.6	21.6	21.6	91	19.4	0	1	248	0.00	30.129 
10:00	22.1	22.1	22.1	91	19.9	0	1	248	0.00	30.125 
10:05	22.5	22.5	22.5	91	20.3	0	1	248	0.00	30.125 
10:10	23.0	23.0	23.0	91	20.8	0	1	248	0.00	30.125 
10:15	23.6	23.6	23.6	91	21.4	0	3	248	0.00	30.122 
10:20	24.1	24.1	24.1	91	21.9	0	1	248	0.00	30.122 
10:25	24.5	24.5	24.5	91	22.3	0	1	248	0.00	30.122 
10:30	25.0	25.0	25.0	91	22.8	0	2	248	0.00	30.119 
10:35	25.4	25.4	25.4	90	22.9	0	1	248	0.00	30.119 
10:40	25.7	25.7	25.7	90	23.2	0	2	248	0.00	30.119 
10:45	26.3	26.3	26.3	89	23.5	0	1	248	0.00	30.117 
10:50	26.7	26.7	26.7	89	23.9	0	1	248	0.00	30.117 
10:55	27.0	27.0	27.0	88	23.9	0	1	248	0.00	30.117 
11:00	27.5	27.5	27.5	86	23.9	0	2	248	0.00	30.113 
11:05	27.9	27.9	27.9	85	24.0	0	2	248	0.00	30.113 
11:10	28.4	28.4	28.4	83	23.9	1	3	112	0.00	30.113 
11:15	28.7	28.7	28.7	82	23.9	0	3	112	0.00	30.100 
11:20	29.0	29.0	29.0	81	23.9	1	2	112	0.00	30.100 
11:25	29.3	29.3	29.3	80	23.9	0	2	112	0.00	30.100 
11:30	29.5	29.5	29.5	79	23.8	0	2	112	0.00	30.096 
11:35	29.8	29.8	29.8	79	24.1	0	1	112	0.00	30.096 
11:40	30.1	30.1	30.1	78	24.1	0	2	112	0.00	30.096 
11:45	30.4	30.4	30.4	77	24.1	0	1	112	0.00	30.091 
11:50	30.7	30.7	30.7	77	24.4	0	2	112	0.00	30.091 
11:55	31.0	31.0	31.0	76	24.3	0	2	112	0.00	30.091 
12:00	31.2	31.2	31.2	75	24.2	0	3	112	0.00	30.080 
12:05	31.3	31.3	31.3	75	24.3	0	2	135	0.00	30.080 
12:10	31.3	31.3	31.3	74	24.0	1	3	135	0.00	30.080 
12:15	31.5	31.5	31.5	74	24.2	1	3	135	0.00	30.072 
12:20	31.6	31.6	31.6	74	24.3	1	5	90	0.00	30.072 
12:25	31.8	31.8	31.8	74	24.5	1	3	90	0.00	30.072 
12:30	31.9	31.9	31.9	73	24.2	1	5	112	0.00	30.060 
12:35	32.4	32.4	32.4	73	24.7	0	2	112	0.00	30.060 
12:40	32.7	32.7	32.7	73	25.0	1	3	112	0.00	30.060 
12:45	33.1	33.1	33.1	72	25.1	1	4	68	0.00	30.048 
12:50	33.4	33.4	33.4	72	25.4	0	2	68	0.00	30.048 
12:55	33.2	33.2	33.2	74	25.8	1	4	68	0.00	30.048 
13:00	33.1	33.1	33.1	72	25.1	1	4	68	0.00	30.032 
13:05	32.9	32.9	32.9	72	24.9	1	3	90	0.00	30.032 
13:10	33.1	33.1	33.1	72	25.1	1	3	112	0.00	30.032 
13:15	33.2	33.2	33.2	72	25.2	1	3	68	0.00	30.023 
13:20	33.4	33.4	33.4	72	25.4	1	3	135	0.00	30.023 
13:25	33.4	33.4	33.4	72	25.4	2	4	68	0.00	30.023 
13:30	33.4	33.4	33.4	72	25.4	2	4	112	0.00	30.022 
13:35	33.7	33.7	33.7	72	25.7	1	3	112	0.00	30.022 
13:40	34.0	34.0	34.0	71	25.6	1	3	112	0.00	30.022 
13:45	34.4	34.4	34.4	71	26.0	1	4	135	0.00	30.016 
13:50	34.7	34.7	34.7	70	25.9	1	4	90	0.00	30.016 
13:55	35.0	35.0	35.0	70	26.2	1	4	112	0.00	30.016 
14:00	35.3	35.3	35.3	70	26.5	1	4	248	0.00	30.014 
14:05	35.5	35.5	35.5	70	26.7	1	4	248	0.00	30.014 
14:10	35.5	35.5	35.5	70	26.7	1	5	270	0.00	30.014 
14:15	35.6	35.6	35.6	70	26.8	1	4	68	0.00	30.007 
14:20	35.8	35.8	35.8	70	27.0	1	4	112	0.00	30.007 
14:25	35.9	35.9	35.9	70	27.1	0	2	112	0.00	30.007 
14:30	36.0	36.0	36.0	70	27.2	1	4	90	0.00	30.000 
14:35	36.0	36.0	36.0	70	27.2	2	6	112	0.00	30.000 
14:40	36.2	36.2	36.2	69	27.0	1	6	112	0.00	30.000 
14:45	36.5	36.5	36.5	69	27.3	1	3	112	0.00	29.996 
14:50	36.6	36.6	36.6	69	27.4	1	4	90	0.00	29.996 
14:55	36.8	36.8	36.8	69	27.6	1	4	112	0.00	29.996 
15:00	36.8	36.8	36.8	68	27.2	1	4	135	0.00	29.995 
15:05	36.8	36.8	36.8	69	27.6	1	5	135	0.00	29.995 
15:10	36.8	36.8	36.8	69	27.6	1	4	270	0.00	29.995 
15:15	36.8	36.8	36.8	68	27.2	2	6	68	0.00	29.995 
15:20	36.8	36.8	36.8	69	27.6	1	4	90	0.00	29.995 
15:25	36.8	36.8	36.8	68	27.2	1	5	90	0.00	29.995 
15:30	36.9	36.9	36.9	68	27.3	1	5	112	0.00	29.995 
15:35	36.8	36.8	36.8	69	27.6	2	5	112	0.00	29.995 
15:40	36.8	36.8	36.8	69	27.6	1	4	112	0.00	29.995 
15:45	36.8	36.8	36.8	69	27.6	1	4	112	0.00	29.994 
15:50	36.8	36.8	36.8	69	27.6	1	4	135	0.00	29.994 
15:55	36.6	36.6	36.6	69	27.4	1	5	90	0.00	29.994 
16:00	36.5	36.5	36.5	69	27.3	2	6	135	0.00	29.994 
16:05	36.3	36.3	36.3	70	27.5	1	5	112	0.00	29.994 
16:10	36.2	36.2	36.2	71	27.7	1	3	135	0.00	29.994 
16:15	35.8	35.8	35.8	71	27.3	1	4	112	0.00	29.996 
16:20	35.3	35.3	35.3	72	27.2	1	4	90	0.00	29.996 
16:25	34.9	34.9	34.9	73	27.1	1	2	112	0.00	29.996 
16:30	34.7	34.7	34.7	73	26.9	1	3	135	0.00	29.995 
16:35	34.4	34.4	34.4	74	27.0	1	3	112	0.00	29.995 
16:40	34.3	34.3	34.3	74	26.9	1	3	112	0.00	29.995 
16:45	34.1	34.1	34.1	75	27.0	0	1	112	0.00	30.001 
16:50	33.8	33.8	33.8	75	26.7	0	1	112	0.00	30.001 
16:55	33.7	33.7	33.7	76	27.0	0	2	112	0.00	30.001 
17:00	33.5	33.5	33.5	76	26.8	0	2	112	0.00	30.004 
17:05	33.2	33.2	33.2	76	26.5	0	2	112	0.00	30.004 
17:10	33.1	33.1	33.1	77	26.7	0	1	112	0.00	30.004 
17:15	32.9	32.9	32.9	77	26.5	0	2	112	0.00	30.011 
17:20	32.8	32.8	32.8	78	26.7	0	1	112	0.00	30.011 
17:25	32.5	32.5	32.5	78	26.4	0	0	---	0.00	30.011 
17:30	32.4	32.4	32.4	79	26.6	0	1	112	0.00	30.009 
17:35	32.1	32.1	32.1	79	26.3	0	0	---	0.00	30.009 
17:40	31.8	31.8	31.8	80	26.3	0	0	---	0.00	30.009 
17:45	31.6	31.6	31.6	81	26.5	0	1	112	0.00	30.009 
17:50	31.8	31.8	31.8	81	26.6	0	2	112	0.00	30.009 
17:55	31.9	31.9	31.9	81	26.7	1	2	112	0.00	30.009 
18:00	31.9	31.9	31.9	81	26.7	0	2	112	0.00	30.005 
18:05	32.1	32.1	32.1	81	26.9	1	3	112	0.00	30.005 
18:10	32.1	32.1	32.1	81	26.9	1	3	112	0.00	30.005 
18:15	31.9	31.9	31.9	81	26.7	0	2	112	0.00	30.007 
18:20	31.9	31.9	31.9	81	26.7	0	2	112	0.00	30.007 
18:25	31.8	31.8	31.8	81	26.6	0	2	112	0.00	30.007 
18:30	31.8	31.8	31.8	81	26.6	0	2	112	0.00	30.007 
18:35	31.8	31.8	31.8	82	26.9	0	2	112	0.00	30.007 
18:40	31.8	31.8	31.8	82	26.9	1	3	112	0.00	30.007 
18:45	31.9	31.9	31.9	82	27.0	0	2	112	0.00	30.007 
18:50	32.1	32.1	32.1	82	27.2	0	2	112	0.00	30.007 
18:55	32.2	32.2	32.2	81	27.0	0	2	180	0.00	30.007 
19:00	32.4	32.4	32.4	81	27.2	0	3	112	0.00	30.007 
19:05	32.5	32.5	32.5	81	27.3	0	2	90	0.00	30.007 
19:10	32.7	32.7	32.7	81	27.5	0	3	90	0.00	30.007 
19:15	32.8	32.8	32.8	81	27.6	1	2	135	0.00	30.004 
19:20	32.9	32.9	32.9	81	27.7	0	2	90	0.00	30.004 
19:25	33.1	33.1	33.1	81	27.9	1	3	90	0.00	30.004 
19:30	33.2	33.2	33.2	80	27.7	1	4	90	0.00	29.998 
19:35	33.4	33.4	33.4	80	27.9	1	4	112	0.00	29.998 
19:40	33.5	33.5	33.5	79	27.7	0	4	90	0.00	29.998 
19:45	33.5	33.5	33.5	79	27.7	1	5	112	0.00	29.995 
19:50	33.7	33.7	33.7	79	27.9	0	2	135	0.00	29.995 
19:55	33.7	33.7	33.7	79	27.9	1	3	90	0.00	29.995 
20:00	33.8	33.8	33.8	79	28.0	1	3	112	0.00	29.991 
20:05	33.8	33.8	33.8	79	28.0	1	2	112	0.00	29.991 
20:10	33.8	33.8	33.8	79	28.0	1	2	135	0.00	29.991 
20:15	33.8	33.8	33.8	79	28.0	0	3	112	0.00	29.989 
20:20	34.0	34.0	34.0	79	28.2	0	2	112	0.00	29.989 
20:25	34.1	34.1	34.1	79	28.3	1	3	112	0.00	29.989 
20:30	34.3	34.3	34.3	79	28.5	1	3	90	0.00	29.989 
20:35	34.4	34.4	34.4	79	28.6	1	6	90	0.00	29.989 
20:40	34.6	34.6	34.6	79	28.8	1	4	112	0.00	29.989 
20:45	34.9	34.9	34.9	78	28.7	1	3	90	0.00	29.988 
20:50	35.0	35.0	35.0	78	28.8	1	3	90	0.00	29.988 
20:55	35.3	35.3	35.3	78	29.1	1	3	90	0.00	29.988 
21:00	35.5	35.5	35.5	77	29.0	1	3	90	0.00	29.982 
21:05	35.8	35.8	35.8	77	29.3	2	6	90	0.00	29.982 
21:10	36.0	36.0	36.0	76	29.2	2	4	135	0.00	29.982 
21:15	36.0	36.0	36.0	76	29.2	1	4	90	0.00	29.971 
21:20	36.0	36.0	36.0	75	28.9	1	4	90	0.00	29.971 
21:25	36.2	36.2	36.2	75	29.1	1	3	90	0.00	29.971 
21:30	36.2	36.2	36.2	76	29.4	1	5	68	0.00	29.972 
21:35	36.3	36.3	36.3	77	29.8	3	6	90	0.00	29.972 
21:40	36.3	36.3	36.3	77	29.8	2	7	90	0.00	29.972 
21:45	36.3	36.3	36.3	79	30.4	2	5	90	0.00	29.970 
21:50	36.3	36.3	36.3	81	31.0	1	4	112	0.00	29.970 
21:55	36.2	36.2	36.2	82	31.2	3	7	90	0.00	29.970 
22:00	36.0	36.0	36.0	83	31.3	2	7	90	0.00	29.966 
22:05	35.9	35.9	35.9	84	31.5	2	4	90	0.00	29.966 
22:10	35.8	35.8	35.8	85	31.7	1	4	68	0.00	29.966 
22:15	35.6	35.6	35.6	86	31.8	1	4	112	0.00	29.961 
22:20	35.6	35.6	35.6	86	31.8	1	6	112	0.00	29.961 
22:25	35.5	35.5	35.5	87	32.0	1	5	90	0.00	29.961 
22:30	35.3	35.3	35.3	88	32.1	1	3	112	0.00	29.961 
22:35	35.3	35.3	35.3	88	32.1	1	3	112	0.00	29.961 
22:40	35.2	35.2	35.2	89	32.3	1	3	112	0.00	29.961 
22:45	35.2	35.2	35.2	89	32.3	1	3	90	0.00	29.960 
22:50	35.0	35.0	35.0	89	32.1	1	3	90	0.00	29.960 
22:55	35.0	35.0	35.0	90	32.4	1	3	112	0.00	29.960 
23:00	35.0	35.0	35.0	90	32.4	1	3	112	0.00	29.960 
23:05	35.0	35.0	35.0	90	32.4	1	3	68	0.00	29.960 
23:10	35.0	35.0	35.0	90	32.4	1	3	90	0.00	29.960 
23:15	35.0	35.0	35.0	90	32.4	1	3	112	0.00	29.956 
23:20	35.0	35.0	35.0	90	32.4	1	2	315	0.00	29.956 
23:25	35.0	35.0	35.0	90	32.4	1	4	135	0.00	29.956 
23:30	35.0	35.0	35.0	90	32.4	1	3	90	0.00	29.956 
23:35	35.2	35.2	35.2	90	32.6	1	4	135	0.00	29.956 
23:40	35.2	35.2	35.2	90	32.6	1	4	112	0.00	29.956 
23:45	35.3	35.3	35.3	89	32.4	1	2	135	0.00	29.952 
23:50	35.5	35.5	35.5	89	32.6	1	2	90	0.00	29.952 
23:55	35.5	35.5	35.5	89	32.6	1	3	90	0.00	29.952 

CoCoRaHS
IN-AL-39
A2 Web Hosting
Creative Commons License
GoDaddy
search engine by freefind advanced

loaded 2018-11-14 03:39:00 • last modified 2010-11-18 10:43:29
Privacy PolicyDisclaimer
• wx.awcolley.com is powered by PmWiki v.2002016 •
• all content (unless otherwise noted) © 2018 A W Colley